createdAt,value
2019-04-14T00:02:15.292Z,4.19
2019-04-14T00:07:23.452Z,4.12
2019-04-14T00:12:29.524Z,4.00
2019-04-14T00:17:35.219Z,4.15
2019-04-14T00:22:40.897Z,4.12
2019-04-14T00:27:47.552Z,4.15
2019-04-14T00:33:01.925Z,4.00
2019-04-14T00:38:17.463Z,4.08
2019-04-14T00:43:37.493Z,3.86
2019-04-14T00:48:45.223Z,4.19
2019-04-14T00:53:51.367Z,4.10
2019-04-14T00:58:58.260Z,3.90
2019-04-14T01:04:04.485Z,3.97
2019-04-14T01:09:13.160Z,3.98
2019-04-14T01:14:19.097Z,3.80
2019-04-14T01:19:24.982Z,3.81
2019-04-14T01:24:31.629Z,3.74
2019-04-14T01:29:38.480Z,3.59
2019-04-14T01:34:45.531Z,3.76
2019-04-14T01:39:52.406Z,3.76
2019-04-14T01:44:59.267Z,3.58
2019-04-14T01:50:05.938Z,3.62
2019-04-14T01:55:13.569Z,3.79
2019-04-14T02:00:24.879Z,3.74
2019-04-14T02:05:32.041Z,3.59
2019-04-14T02:10:39.276Z,3.72
2019-04-14T02:15:46.459Z,3.56
2019-04-14T02:20:53.502Z,3.75
2019-04-14T02:26:00.105Z,3.59
2019-04-14T02:31:18.195Z,3.60
2019-04-14T02:36:38.178Z,3.51
2019-04-14T02:46:57.813Z,3.66
2019-04-14T02:52:04.890Z,3.76
2019-04-14T02:57:23.123Z,3.55
2019-04-14T03:12:36.001Z,3.84
2019-04-14T03:18:16.523Z,3.77
2019-04-14T03:23:24.975Z,3.80
2019-04-14T03:28:30.498Z,3.58
2019-04-14T03:38:44.854Z,3.78
2019-04-14T03:43:43.103Z,3.64
2019-04-14T03:48:58.071Z,3.86
2019-04-14T03:53:57.557Z,3.79
2019-04-14T03:58:44.509Z,3.73
2019-04-14T04:03:50.492Z,3.93
2019-04-14T04:08:57.502Z,3.91
2019-04-14T04:14:03.320Z,3.81
2019-04-14T04:19:18.252Z,3.95
2019-04-14T04:24:32.203Z,3.91
2019-04-14T04:29:57.293Z,3.73
2019-04-14T04:35:04.672Z,3.83
2019-04-14T04:40:18.121Z,4.06
2019-04-14T04:45:24.067Z,3.94
2019-04-14T04:50:30.334Z,4.21
2019-04-14T04:55:37.285Z,3.91
2019-04-14T05:00:43.900Z,3.94
2019-04-14T05:06:26.623Z,4.02
2019-04-14T05:11:42.569Z,4.26
2019-04-14T05:16:48.672Z,4.19
2019-04-14T05:21:54.529Z,4.32
2019-04-14T05:27:01.377Z,3.74
2019-04-14T05:32:07.337Z,3.96
2019-04-14T05:37:14.265Z,4.01
2019-04-14T05:42:24.055Z,3.98
2019-04-14T05:47:28.341Z,4.10
2019-04-14T05:52:34.139Z,4.15
2019-04-14T05:57:40.117Z,4.13
2019-04-14T06:02:46.363Z,4.29
2019-04-14T06:07:52.435Z,4.38
2019-04-14T06:12:58.232Z,4.34
2019-04-14T06:18:04.368Z,4.31
2019-04-14T06:23:10.192Z,4.65
2019-04-14T06:28:16.099Z,4.46
2019-04-14T06:33:26.468Z,4.36
2019-04-14T06:38:33.977Z,4.31
2019-04-14T06:43:48.803Z,4.29
2019-04-14T06:48:47.369Z,4.41
2019-04-14T06:53:53.357Z,4.60
2019-04-14T06:58:59.274Z,4.67
2019-04-14T07:04:05.144Z,4.69
2019-04-14T07:09:10.828Z,4.97
2019-04-14T07:14:16.779Z,5.03
2019-04-14T07:19:22.616Z,4.92
2019-04-14T07:24:28.291Z,5.17
2019-04-14T07:29:42.038Z,5.07
2019-04-14T07:34:50.312Z,5.21
2019-04-14T07:39:57.714Z,5.36
2019-04-14T07:45:05.111Z,5.60
2019-04-14T07:50:21.734Z,6.26
2019-04-14T07:55:29.267Z,6.70
2019-04-14T08:00:36.685Z,6.37
2019-04-14T08:05:44.498Z,6.24
2019-04-14T08:10:50.270Z,6.35
2019-04-14T08:15:56.905Z,6.82
2019-04-14T08:21:02.805Z,6.76
2019-04-14T08:26:08.671Z,6.93
2019-04-14T08:31:14.651Z,6.92
2019-04-14T08:36:20.550Z,7.19
2019-04-14T08:41:27.972Z,7.40
2019-04-14T08:46:42.262Z,7.51
2019-04-14T08:51:49.721Z,7.63
2019-04-14T08:56:57.183Z,7.63
2019-04-14T09:02:07.596Z,7.78
2019-04-14T09:07:24.112Z,8.29
2019-04-14T09:12:31.732Z,8.10
2019-04-14T09:17:37.494Z,8.53
2019-04-14T09:22:43.276Z,8.41
2019-04-14T09:27:49.176Z,9.30
2019-04-14T09:32:55.013Z,8.93
2019-04-14T09:38:00.983Z,9.08
2019-04-14T09:43:06.878Z,10.13
2019-04-14T09:48:12.628Z,10.15
2019-04-14T09:53:19.525Z,10.74
2019-04-14T09:58:25.346Z,11.23
2019-04-14T10:03:31.265Z,11.61
2019-04-14T10:08:37.037Z,11.05
2019-04-14T10:13:42.869Z,10.77
2019-04-14T10:18:48.522Z,10.82
2019-04-14T10:23:54.275Z,11.61
2019-04-14T10:28:59.859Z,11.21
2019-04-14T10:34:05.982Z,11.28
2019-04-14T10:39:11.810Z,11.44
2019-04-14T10:44:17.447Z,10.42
2019-04-14T10:49:22.882Z,10.98
2019-04-14T10:54:28.525Z,10.45
2019-04-14T10:59:34.301Z,10.65
2019-04-14T11:04:40.294Z,10.75
2019-04-14T11:09:45.859Z,10.59
2019-04-14T11:14:51.643Z,10.66
2019-04-14T11:19:57.386Z,10.90
2019-04-14T11:25:03.749Z,10.33
2019-04-14T11:30:11.197Z,11.34
2019-04-14T11:35:18.605Z,11.22
2019-04-14T11:40:25.702Z,11.27
2019-04-14T11:45:31.312Z,11.38
2019-04-14T11:50:37.798Z,11.46
2019-04-14T11:55:43.490Z,11.71
2019-04-14T12:01:06.747Z,11.45
2019-04-14T12:06:13.975Z,11.94
2019-04-14T12:11:21.401Z,11.12
2019-04-14T12:16:27.137Z,11.89
2019-04-14T12:21:32.781Z,12.07
2019-04-14T12:26:38.219Z,11.80
2019-04-14T12:31:44.683Z,12.07
2019-04-14T12:36:50.251Z,13.30
2019-04-14T12:41:57.621Z,13.39
2019-04-14T12:47:17.254Z,13.63
2019-04-14T12:52:24.545Z,13.11
2019-04-14T12:57:31.954Z,13.43
2019-04-14T13:02:39.250Z,13.74
2019-04-14T13:07:44.773Z,13.87
2019-04-14T13:12:50.669Z,14.19
2019-04-14T13:17:56.723Z,14.19
2019-04-14T13:23:02.347Z,13.44
2019-04-14T13:28:08.332Z,13.65
2019-04-14T13:33:14.456Z,14.18
2019-04-14T13:38:19.967Z,14.17
2019-04-14T13:43:25.597Z,13.77
2019-04-14T13:48:31.695Z,14.02
2019-04-14T13:53:38.497Z,14.21
2019-04-14T13:58:44.103Z,14.64
2019-04-14T14:03:49.846Z,14.40
2019-04-14T14:08:55.361Z,14.47
2019-04-14T14:14:11.340Z,15.20
2019-04-14T14:19:21.315Z,14.98
2019-04-14T14:24:40.755Z,15.36
2019-04-14T14:29:46.407Z,14.87
2019-04-14T14:34:52.259Z,15.03
2019-04-14T14:39:57.783Z,14.96
2019-04-14T14:45:05.946Z,15.14
2019-04-14T14:50:13.247Z,15.66
2019-04-14T14:55:18.935Z,15.46
2019-04-14T15:00:29.224Z,15.43
2019-04-14T15:05:35.044Z,15.48
2019-04-14T15:10:40.472Z,15.05
2019-04-14T15:15:46.667Z,14.60
2019-04-14T15:20:52.327Z,14.32
2019-04-14T15:25:58.254Z,14.39
2019-04-14T15:31:04.556Z,14.08
2019-04-14T15:36:10.739Z,13.79
2019-04-14T15:41:17.607Z,13.18
2019-04-14T15:46:23.569Z,12.62
2019-04-14T15:51:29.455Z,12.70
2019-04-14T15:56:37.068Z,12.94
2019-04-14T16:01:44.583Z,13.08
2019-04-14T16:07:01.101Z,12.66
2019-04-14T16:12:11.494Z,13.03
2019-04-14T16:17:21.965Z,12.29
2019-04-14T16:22:28.950Z,13.06
2019-04-14T16:27:51.326Z,13.50
2019-04-14T16:33:14.617Z,12.88
2019-04-14T16:38:20.185Z,14.66
2019-04-14T16:43:26.376Z,13.79
2019-04-14T16:48:32.044Z,12.63
2019-04-14T16:53:41.051Z,12.35
2019-04-14T16:58:48.410Z,12.17
2019-04-14T17:03:54.125Z,12.12
2019-04-14T17:08:59.949Z,11.94
2019-04-14T17:14:07.485Z,11.88
2019-04-14T17:19:18.214Z,11.46
2019-04-14T17:24:28.163Z,11.38
2019-04-14T17:29:41.044Z,11.34
2019-04-14T17:35:06.987Z,11.17
2019-04-14T17:40:13.986Z,11.00
2019-04-14T17:45:27.505Z,10.68
2019-04-14T17:50:41.102Z,10.62
2019-04-14T17:55:49.963Z,10.36
2019-04-14T18:00:58.984Z,10.19
2019-04-14T18:06:15.543Z,10.13
2019-04-14T18:11:37.878Z,9.92
2019-04-14T18:16:57.223Z,9.94
2019-04-14T18:22:03.427Z,9.40
2019-04-14T18:27:09.969Z,9.46
2019-04-14T18:32:20.350Z,9.39
2019-04-14T18:37:44.318Z,9.34
2019-04-14T18:42:51.558Z,9.08
2019-04-14T18:48:04.711Z,9.06
2019-04-14T18:53:27.968Z,9.00
2019-04-14T18:58:38.151Z,8.72
2019-04-14T19:03:43.738Z,8.88
2019-04-14T19:08:52.634Z,8.83
2019-04-14T19:14:00.028Z,8.48
2019-04-14T19:19:07.145Z,8.67
2019-04-14T19:24:12.994Z,8.61
2019-04-14T19:29:18.664Z,8.49
2019-04-14T19:34:24.320Z,8.47
2019-04-14T19:39:29.915Z,8.24
2019-04-14T19:44:36.915Z,8.22
2019-04-14T19:49:42.474Z,8.16
2019-04-14T19:54:48.067Z,8.20
2019-04-14T19:59:53.774Z,7.99
2019-04-14T20:04:59.546Z,7.99
2019-04-14T20:10:08.628Z,7.88
2019-04-14T20:15:16.517Z,7.71
2019-04-14T20:20:32.662Z,7.72
2019-04-14T20:25:56.431Z,7.72
2019-04-14T20:31:06.701Z,7.58
2019-04-14T20:36:12.583Z,7.47
2019-04-14T20:41:18.387Z,7.39
2019-04-14T20:46:24.132Z,7.36
2019-04-14T20:51:29.879Z,7.33
2019-04-14T20:56:35.743Z,7.31
2019-04-14T21:01:43.258Z,7.20
2019-04-14T21:06:59.973Z,7.08
2019-04-14T21:12:07.504Z,7.08
2019-04-14T21:17:17.864Z,6.88
2019-04-14T21:22:31.188Z,6.73
2019-04-14T21:27:48.356Z,6.63
2019-04-14T21:33:01.807Z,6.57
2019-04-14T21:38:09.832Z,6.48
2019-04-14T21:43:16.752Z,6.14
2019-04-14T21:48:24.729Z,6.16
2019-04-14T21:53:30.477Z,6.17
2019-04-14T21:58:37.710Z,5.95
2019-04-14T22:03:45.119Z,5.90
2019-04-14T22:08:52.590Z,6.00
2019-04-14T22:13:58.252Z,5.78
2019-04-14T22:19:04.477Z,5.74
2019-04-14T22:24:10.235Z,5.64
2019-04-14T22:29:16.143Z,5.69
2019-04-14T22:34:21.987Z,5.59
2019-04-14T22:39:27.857Z,5.42
2019-04-14T22:44:33.662Z,5.30
2019-04-14T22:49:39.393Z,5.33
2019-04-14T22:54:45.272Z,5.22
2019-04-14T22:59:51.028Z,5.32
2019-04-14T23:04:58.525Z,5.14
2019-04-14T23:10:12.492Z,4.90
2019-04-14T23:15:26.252Z,4.87
2019-04-14T23:20:49.055Z,4.83
2019-04-14T23:25:54.726Z,4.81
2019-04-14T23:31:01.712Z,4.59
2019-04-14T23:36:07.760Z,4.37
2019-04-14T23:41:13.729Z,4.39
2019-04-14T23:46:19.609Z,4.29
2019-04-14T23:51:25.457Z,4.19
2019-04-14T23:56:31.258Z,3.80
